createdAt,value
2023-05-07T00:02:39.324Z,83.37
2023-05-07T00:05:44.940Z,81.83
2023-05-07T00:08:50.769Z,81.18
2023-05-07T00:11:56.729Z,84.55
2023-05-07T00:15:04.043Z,85.42
2023-05-07T00:18:09.633Z,88.67
2023-05-07T00:21:15.269Z,91.99
2023-05-07T00:24:21.297Z,93.96
2023-05-07T00:27:27.208Z,94.10
2023-05-07T00:30:33.354Z,93.45
2023-05-07T00:33:39.706Z,93.44
2023-05-07T00:36:44.891Z,94.34
2023-05-07T00:39:51.020Z,97.33
2023-05-07T00:42:59.525Z,98.75
2023-05-07T00:46:05.129Z,100.00
2023-05-07T00:49:11.141Z,100.00
2023-05-07T00:52:18.964Z,100.00
2023-05-07T00:55:25.235Z,100.00
2023-05-07T00:58:31.717Z,100.00
2023-05-07T01:01:38.177Z,100.00
2023-05-07T01:04:44.110Z,100.00
2023-05-07T01:07:51.461Z,100.00
2023-05-07T01:10:59.011Z,100.00
2023-05-07T01:14:05.741Z,100.00
2023-05-07T01:17:12.266Z,100.00
2023-05-07T01:20:19.218Z,100.00
2023-05-07T01:23:26.993Z,100.00
2023-05-07T01:26:32.620Z,100.00
2023-05-07T01:29:38.625Z,100.00
2023-05-07T01:32:54.881Z,100.00
2023-05-07T01:36:03.521Z,100.00
2023-05-07T01:39:10.996Z,100.00
2023-05-07T01:42:16.605Z,100.00
2023-05-07T01:45:23.097Z,100.00
2023-05-07T01:48:30.234Z,100.00
2023-05-07T01:51:36.731Z,100.00
2023-05-07T01:54:42.296Z,100.00
2023-05-07T01:57:47.506Z,100.00
2023-05-07T02:00:53.508Z,100.00
2023-05-07T02:03:59.060Z,100.00
2023-05-07T02:07:07.500Z,100.00
2023-05-07T02:10:13.098Z,100.00
2023-05-07T02:13:18.721Z,100.00
2023-05-07T02:16:25.210Z,100.00
2023-05-07T02:19:31.801Z,100.00
2023-05-07T02:22:37.973Z,100.00
2023-05-07T02:25:43.625Z,100.00
2023-05-07T02:28:49.247Z,100.00
2023-05-07T02:31:54.941Z,100.00
2023-05-07T02:35:00.912Z,100.00
2023-05-07T02:38:06.473Z,100.00
2023-05-07T02:41:12.986Z,100.00
2023-05-07T02:44:18.341Z,100.00
2023-05-07T02:47:30.988Z,100.00
2023-05-07T02:50:38.140Z,100.00
2023-05-07T02:53:43.618Z,100.00
2023-05-07T02:56:49.155Z,100.00
2023-05-07T02:59:54.532Z,100.00
2023-05-07T03:03:01.029Z,100.00
2023-05-07T03:06:08.022Z,100.00
2023-05-07T03:09:13.439Z,100.00
2023-05-07T03:12:18.991Z,100.00
2023-05-07T03:15:24.165Z,100.00
2023-05-07T03:18:29.684Z,100.00
2023-05-07T03:21:35.663Z,100.00
2023-05-07T03:24:41.148Z,100.00
2023-05-07T03:27:47.088Z,100.00
2023-05-07T03:30:52.409Z,100.00
2023-05-07T03:33:58.812Z,100.00
2023-05-07T03:37:05.172Z,100.00
2023-05-07T03:40:12.227Z,100.00
2023-05-07T03:43:24.636Z,100.00
2023-05-07T03:46:39.624Z,100.00
2023-05-07T03:49:46.436Z,100.00
2023-05-07T03:52:53.162Z,100.00
2023-05-07T03:56:00.702Z,100.00
2023-05-07T03:59:09.846Z,100.00
2023-05-07T04:02:15.242Z,100.00
2023-05-07T04:05:20.723Z,100.00
2023-05-07T04:08:29.711Z,100.00
2023-05-07T04:11:36.060Z,100.00
2023-05-07T04:14:41.310Z,100.00
2023-05-07T04:17:47.069Z,100.00
2023-05-07T04:20:54.354Z,100.00
2023-05-07T04:24:00.720Z,100.00
2023-05-07T04:27:07.835Z,100.00
2023-05-07T04:30:14.676Z,100.00
2023-05-07T04:33:21.082Z,100.00
2023-05-07T04:36:31.529Z,100.00
2023-05-07T04:39:41.864Z,100.00
2023-05-07T04:42:47.749Z,100.00
2023-05-07T04:45:53.762Z,100.00
2023-05-07T04:49:02.270Z,100.00
2023-05-07T04:52:08.035Z,100.00
2023-05-07T04:55:14.070Z,100.00
2023-05-07T04:58:20.588Z,100.00
2023-05-07T05:01:27.144Z,100.00
2023-05-07T05:04:33.208Z,100.00
2023-05-07T05:07:39.073Z,100.00
2023-05-07T05:10:44.835Z,100.00
2023-05-07T05:13:50.704Z,100.00
2023-05-07T05:16:59.696Z,100.00
2023-05-07T05:20:07.015Z,100.00
2023-05-07T05:23:13.807Z,100.00
2023-05-07T05:26:20.076Z,100.00
2023-05-07T05:29:25.616Z,100.00
2023-05-07T05:32:31.183Z,100.00
2023-05-07T05:35:37.083Z,100.00
2023-05-07T05:38:45.629Z,100.00
2023-05-07T05:41:52.866Z,100.00
2023-05-07T05:44:59.867Z,100.00
2023-05-07T05:48:07.552Z,100.00
2023-05-07T05:51:13.248Z,100.00
2023-05-07T05:54:19.142Z,100.00
2023-05-07T05:57:25.989Z,100.00
2023-05-07T06:00:33.735Z,100.00
2023-05-07T06:03:42.254Z,100.00
2023-05-07T06:06:52.840Z,100.00
2023-05-07T06:09:59.500Z,100.00
2023-05-07T06:13:05.004Z,100.00
2023-05-07T06:16:12.874Z,100.00
2023-05-07T06:19:24.304Z,100.00
2023-05-07T06:22:32.050Z,100.00
2023-05-07T06:25:38.798Z,100.00
2023-05-07T06:28:44.417Z,100.00
2023-05-07T06:31:54.570Z,100.00
2023-05-07T06:35:01.563Z,100.00
2023-05-07T06:38:07.183Z,100.00
2023-05-07T06:41:12.999Z,100.00
2023-05-07T06:44:19.013Z,100.00
2023-05-07T06:47:30.332Z,100.00
2023-05-07T06:50:36.250Z,100.00
2023-05-07T06:53:42.127Z,100.00
2023-05-07T06:56:50.175Z,100.00
2023-05-07T06:59:56.484Z,100.00
2023-05-07T07:03:02.379Z,100.00
2023-05-07T07:06:10.159Z,100.00
2023-05-07T07:09:16.607Z,99.85
2023-05-07T07:12:21.954Z,98.33
2023-05-07T07:15:28.081Z,97.04
2023-05-07T07:18:35.079Z,91.15
2023-05-07T07:21:40.566Z,92.03
2023-05-07T07:24:46.412Z,90.42
2023-05-07T07:27:55.474Z,71.24
2023-05-07T07:31:02.866Z,69.86
2023-05-07T07:34:09.895Z,67.02
2023-05-07T07:37:15.579Z,66.41
2023-05-07T07:40:21.651Z,66.94
2023-05-07T07:43:27.826Z,63.60
2023-05-07T07:46:34.617Z,60.90
2023-05-07T07:49:40.950Z,58.87
2023-05-07T07:52:50.343Z,58.35
2023-05-07T07:55:59.526Z,56.61
2023-05-07T07:59:08.490Z,52.94
2023-05-07T08:02:18.480Z,52.81
2023-05-07T08:05:24.680Z,53.60
2023-05-07T08:08:30.539Z,51.35
2023-05-07T08:11:36.541Z,54.26
2023-05-07T08:14:43.672Z,52.81
2023-05-07T08:17:49.732Z,53.28
2023-05-07T08:20:55.634Z,54.32
2023-05-07T08:24:04.258Z,53.96
2023-05-07T08:27:09.795Z,54.19
2023-05-07T08:30:15.653Z,52.98
2023-05-07T08:33:21.553Z,57.05
2023-05-07T08:36:27.153Z,55.16
2023-05-07T08:39:32.702Z,52.80
2023-05-07T08:42:39.162Z,51.55
2023-05-07T08:45:47.257Z,52.58
2023-05-07T08:48:54.597Z,50.96
2023-05-07T08:52:00.391Z,51.19
2023-05-07T08:55:08.565Z,53.49
2023-05-07T08:58:13.720Z,50.93
2023-05-07T09:01:20.738Z,49.61
2023-05-07T09:04:30.490Z,49.07
2023-05-07T09:07:35.755Z,48.38
2023-05-07T09:10:43.776Z,47.83
2023-05-07T09:13:49.566Z,47.40
2023-05-07T09:16:55.276Z,47.08
2023-05-07T09:20:10.121Z,46.63
2023-05-07T09:23:18.230Z,47.62
2023-05-07T09:26:24.497Z,48.03
2023-05-07T09:29:31.302Z,47.38
2023-05-07T09:32:39.518Z,48.11
2023-05-07T09:35:53.095Z,46.90
2023-05-07T09:39:03.047Z,47.98
2023-05-07T09:42:09.633Z,47.44
2023-05-07T09:45:15.898Z,46.80
2023-05-07T09:48:21.970Z,47.13
2023-05-07T09:51:44.824Z,46.93
2023-05-07T09:54:52.852Z,47.05
2023-05-07T09:58:03.736Z,46.84
2023-05-07T10:01:09.910Z,46.72
2023-05-07T10:04:16.588Z,46.30
2023-05-07T10:07:24.408Z,47.59
2023-05-07T10:10:35.363Z,46.89
2023-05-07T10:13:43.982Z,46.63
2023-05-07T10:16:50.517Z,47.17
2023-05-07T10:19:56.564Z,46.75
2023-05-07T10:23:05.916Z,47.08
2023-05-07T10:26:21.945Z,47.40
2023-05-07T10:29:45.923Z,47.25
2023-05-07T10:32:55.414Z,48.49
2023-05-07T10:36:09.094Z,46.71
2023-05-07T10:39:15.670Z,47.94
2023-05-07T10:42:22.031Z,47.87
2023-05-07T10:45:32.605Z,48.29
2023-05-07T10:49:02.044Z,47.63
2023-05-07T10:52:17.424Z,48.08
2023-05-07T10:55:32.899Z,48.38
2023-05-07T10:58:46.687Z,46.91
2023-05-07T11:02:11.160Z,46.63
2023-05-07T11:05:23.861Z,47.42
2023-05-07T11:08:59.752Z,47.13
2023-05-07T11:12:37.895Z,47.07
2023-05-07T11:15:49.262Z,47.27
2023-05-07T11:19:01.975Z,47.81
2023-05-07T11:22:37.069Z,47.97
2023-05-07T11:26:08.092Z,47.71
2023-05-07T11:29:22.944Z,47.11
2023-05-07T11:32:34.947Z,47.43
2023-05-07T11:35:41.518Z,48.00
2023-05-07T11:38:49.966Z,46.34
2023-05-07T11:41:55.994Z,46.74
2023-05-07T11:45:02.821Z,46.99
2023-05-07T11:48:08.159Z,46.96
2023-05-07T11:51:14.530Z,47.12
2023-05-07T11:54:19.549Z,47.71
2023-05-07T11:57:25.987Z,47.42
2023-05-07T12:00:31.417Z,47.02
2023-05-07T12:03:41.085Z,47.38
2023-05-07T12:06:46.250Z,48.07
2023-05-07T12:09:51.615Z,47.45
2023-05-07T12:12:57.218Z,47.37
2023-05-07T12:16:06.534Z,46.23
2023-05-07T12:19:15.914Z,47.56
2023-05-07T12:22:22.211Z,48.05
2023-05-07T12:25:27.755Z,47.49
2023-05-07T12:28:39.305Z,48.12
2023-05-07T12:31:45.372Z,48.50
2023-05-07T12:34:53.648Z,48.00
2023-05-07T12:38:05.684Z,47.29
2023-05-07T12:41:13.865Z,47.66
2023-05-07T12:44:19.468Z,47.13
2023-05-07T12:47:24.800Z,47.33
2023-05-07T12:50:35.107Z,48.54
2023-05-07T12:53:44.538Z,47.69
2023-05-07T12:56:49.897Z,49.17
2023-05-07T12:59:59.556Z,47.59
2023-05-07T13:03:05.064Z,47.65
2023-05-07T13:06:11.710Z,48.04
2023-05-07T13:09:17.162Z,48.79
2023-05-07T13:12:22.752Z,47.69
2023-05-07T13:15:28.663Z,46.94
2023-05-07T13:18:35.291Z,47.08
2023-05-07T13:21:41.087Z,48.31
2023-05-07T13:24:46.867Z,47.96
2023-05-07T13:28:02.753Z,47.17
2023-05-07T13:31:15.893Z,46.72
2023-05-07T13:34:21.553Z,47.78
2023-05-07T13:37:27.516Z,47.74
2023-05-07T13:40:33.228Z,47.64
2023-05-07T13:43:38.979Z,48.01
2023-05-07T13:46:45.626Z,48.29
2023-05-07T13:49:51.683Z,46.66
2023-05-07T13:52:57.807Z,47.27
2023-05-07T13:56:05.888Z,48.36
2023-05-07T13:59:11.885Z,47.19
2023-05-07T14:02:17.881Z,47.52
2023-05-07T14:05:29.288Z,48.03
2023-05-07T14:08:34.748Z,47.96
2023-05-07T14:11:41.166Z,46.97
2023-05-07T14:14:47.966Z,46.97
2023-05-07T14:17:54.143Z,47.17
2023-05-07T14:20:59.825Z,46.63
2023-05-07T14:24:08.689Z,47.27
2023-05-07T14:27:14.342Z,47.13
2023-05-07T14:30:19.768Z,46.17
2023-05-07T14:33:25.143Z,48.21
2023-05-07T14:36:31.685Z,46.59
2023-05-07T14:39:37.569Z,47.94
2023-05-07T14:42:43.217Z,46.72
2023-05-07T14:45:48.495Z,47.54
2023-05-07T14:48:54.354Z,48.60
2023-05-07T14:52:02.772Z,47.63
2023-05-07T14:55:08.950Z,46.66
2023-05-07T14:58:15.265Z,46.86
2023-05-07T15:01:22.116Z,47.13
2023-05-07T15:04:27.677Z,47.11
2023-05-07T15:07:34.290Z,47.04
2023-05-07T15:10:42.438Z,45.92
2023-05-07T15:13:48.004Z,45.70
2023-05-07T15:16:53.185Z,46.04
2023-05-07T15:19:58.882Z,46.56
2023-05-07T15:23:10.945Z,46.23
2023-05-07T15:26:17.859Z,46.44
2023-05-07T15:29:23.303Z,46.50
2023-05-07T15:32:28.642Z,45.92
2023-05-07T15:35:34.373Z,45.24
2023-05-07T15:38:40.114Z,45.51
2023-05-07T15:41:45.704Z,45.23
2023-05-07T15:44:51.102Z,45.70
2023-05-07T15:47:56.654Z,45.96
2023-05-07T15:51:03.522Z,46.99
2023-05-07T15:54:08.917Z,46.80
2023-05-07T15:57:14.424Z,47.83
2023-05-07T16:00:20.201Z,48.10
2023-05-07T16:03:27.956Z,48.83
2023-05-07T16:06:33.955Z,48.18
2023-05-07T16:09:39.773Z,48.05
2023-05-07T16:12:45.687Z,48.91
2023-05-07T16:15:58.059Z,47.76
2023-05-07T16:19:04.125Z,47.28
2023-05-07T16:22:10.621Z,48.31
2023-05-07T16:25:16.857Z,46.73
2023-05-07T16:28:24.123Z,48.29
2023-05-07T16:31:31.926Z,46.13
2023-05-07T16:34:37.897Z,48.98
2023-05-07T16:37:43.452Z,47.18
2023-05-07T16:40:49.107Z,47.08
2023-05-07T16:43:54.325Z,48.56
2023-05-07T16:46:59.771Z,47.67
2023-05-07T16:50:08.674Z,47.91
2023-05-07T16:53:14.452Z,47.86
2023-05-07T16:56:20.314Z,49.85
2023-05-07T16:59:25.857Z,49.12
2023-05-07T17:02:31.649Z,49.89
2023-05-07T17:05:37.079Z,51.07
2023-05-07T17:08:43.231Z,50.51
2023-05-07T17:11:48.949Z,52.01
2023-05-07T17:14:54.218Z,51.58
2023-05-07T17:17:59.679Z,50.14
2023-05-07T17:21:04.997Z,49.79
2023-05-07T17:24:10.718Z,52.22
2023-05-07T17:27:16.632Z,51.85
2023-05-07T17:30:22.169Z,51.63
2023-05-07T17:33:27.767Z,52.11
2023-05-07T17:36:33.544Z,52.15
2023-05-07T17:39:38.952Z,52.60
2023-05-07T17:42:44.255Z,52.89
2023-05-07T17:45:50.561Z,53.70
2023-05-07T17:48:57.142Z,53.95
2023-05-07T17:52:02.429Z,53.11
2023-05-07T17:55:08.935Z,53.75
2023-05-07T17:58:14.701Z,54.53
2023-05-07T18:01:22.233Z,53.93
2023-05-07T18:04:28.438Z,54.73
2023-05-07T18:07:34.060Z,54.85
2023-05-07T18:10:39.662Z,55.23
2023-05-07T18:13:45.258Z,54.85
2023-05-07T18:16:51.130Z,55.55
2023-05-07T18:19:56.875Z,56.27
2023-05-07T18:23:02.524Z,56.42
2023-05-07T18:26:08.585Z,57.55
2023-05-07T18:29:14.309Z,59.52
2023-05-07T18:32:22.000Z,60.17
2023-05-07T18:35:27.720Z,61.66
2023-05-07T18:38:34.205Z,63.67
2023-05-07T18:41:39.875Z,64.75
2023-05-07T18:44:45.290Z,69.19
2023-05-07T18:47:50.360Z,71.64
2023-05-07T18:50:55.309Z,69.60
2023-05-07T18:54:02.292Z,67.37
2023-05-07T18:57:07.698Z,67.81
2023-05-07T19:00:14.400Z,69.01
2023-05-07T19:03:20.011Z,69.22
2023-05-07T19:06:26.536Z,70.27
2023-05-07T19:09:32.314Z,71.11
2023-05-07T19:12:37.644Z,72.20
2023-05-07T19:15:44.120Z,72.74
2023-05-07T19:18:49.741Z,74.04
2023-05-07T19:21:55.411Z,75.56
2023-05-07T19:25:01.119Z,77.38
2023-05-07T19:28:06.929Z,76.56
2023-05-07T19:31:23.168Z,75.51
2023-05-07T19:34:30.505Z,70.88
2023-05-07T19:37:36.930Z,69.90
2023-05-07T19:40:42.268Z,66.72
2023-05-07T19:43:48.143Z,66.38
2023-05-07T19:46:53.474Z,64.99
2023-05-07T19:49:59.228Z,65.58
2023-05-07T19:53:05.399Z,64.71
2023-05-07T19:56:12.055Z,63.45
2023-05-07T19:59:17.565Z,63.39
2023-05-07T20:02:23.188Z,64.00
2023-05-07T20:05:30.307Z,64.87
2023-05-07T20:08:37.013Z,65.33
2023-05-07T20:11:44.059Z,64.88
2023-05-07T20:14:51.578Z,68.44
2023-05-07T20:17:56.906Z,71.70
2023-05-07T20:21:01.966Z,76.13
2023-05-07T20:24:08.011Z,77.89
2023-05-07T20:27:13.617Z,81.36
2023-05-07T20:30:24.399Z,82.27
2023-05-07T20:33:30.238Z,82.59
2023-05-07T20:36:36.262Z,81.68
2023-05-07T20:39:42.762Z,82.46
2023-05-07T20:42:48.523Z,79.77
2023-05-07T20:46:02.996Z,80.09
2023-05-07T20:49:08.918Z,81.35
2023-05-07T20:52:13.958Z,86.36
2023-05-07T20:55:19.534Z,91.08
2023-05-07T20:58:26.606Z,97.98
2023-05-07T21:01:32.390Z,100.00
2023-05-07T21:04:38.063Z,100.00
2023-05-07T21:07:43.248Z,100.00
2023-05-07T21:10:49.277Z,100.00
2023-05-07T21:13:54.496Z,100.00
2023-05-07T21:17:00.617Z,100.00
2023-05-07T21:20:07.100Z,100.00
2023-05-07T21:23:12.947Z,100.00
2023-05-07T21:26:19.429Z,100.00
2023-05-07T21:29:25.369Z,100.00
2023-05-07T21:32:31.718Z,100.00
2023-05-07T21:35:37.836Z,100.00
2023-05-07T21:38:43.608Z,100.00
2023-05-07T21:41:49.257Z,100.00
2023-05-07T21:44:54.952Z,100.00
2023-05-07T21:48:00.470Z,100.00
2023-05-07T21:51:07.805Z,100.00
2023-05-07T21:54:13.324Z,100.00
2023-05-07T21:57:18.926Z,100.00
2023-05-07T22:00:24.915Z,100.00
2023-05-07T22:03:30.676Z,98.51
2023-05-07T22:06:36.518Z,81.12
2023-05-07T22:09:42.105Z,80.59
2023-05-07T22:12:48.060Z,80.51
2023-05-07T22:15:58.116Z,82.33
2023-05-07T22:19:04.152Z,76.14
2023-05-07T22:22:09.823Z,77.43
2023-05-07T22:25:15.341Z,75.21
2023-05-07T22:28:21.690Z,94.73
2023-05-07T22:31:27.217Z,100.00
2023-05-07T22:34:33.089Z,100.00
2023-05-07T22:37:38.895Z,100.00
2023-05-07T22:40:44.318Z,100.00
2023-05-07T22:43:49.810Z,100.00
2023-05-07T22:46:55.458Z,100.00
2023-05-07T22:50:01.263Z,100.00
2023-05-07T22:53:07.125Z,100.00
2023-05-07T22:56:12.742Z,100.00
2023-05-07T22:59:18.109Z,100.00
2023-05-07T23:02:24.417Z,100.00
2023-05-07T23:05:30.533Z,100.00
2023-05-07T23:08:35.879Z,100.00
2023-05-07T23:11:41.727Z,100.00
2023-05-07T23:14:47.252Z,100.00
2023-05-07T23:17:52.813Z,100.00
2023-05-07T23:20:58.999Z,100.00
2023-05-07T23:24:04.864Z,100.00
2023-05-07T23:27:10.026Z,100.00
2023-05-07T23:30:15.841Z,100.00
2023-05-07T23:33:21.236Z,100.00
2023-05-07T23:36:27.049Z,100.00
2023-05-07T23:39:32.849Z,100.00
2023-05-07T23:42:38.707Z,100.00
2023-05-07T23:45:44.783Z,100.00
2023-05-07T23:48:50.286Z,100.00
2023-05-07T23:51:56.096Z,100.00
2023-05-07T23:55:01.610Z,100.00
2023-05-07T23:58:07.322Z,100.00
